Time;durP1;ratioP1;P1;durP2;ratioP2;P2;SDS_P1;SDS_P2;PMS_P1;PMS_P2;Temp;Humidity;BMP_temperature;BMP_pressure;BME280_temperature;BME280_humidity;BME280_pressure;Samples;Min_cycle;Max_cycle;Signal;HPM_P1;HPM_P2
2021/09/06 00:01:16;;;;;;;;;;;;;;;28.42;37.80;101416.91;4959896;29;804;-31
2021/09/06 00:03:42;;;;;;;;;;;;;;;28.54;37.71;101417.34;4959973;29;815;-31
2021/09/06 00:06:07;;;;;;;;;;;;;;;28.48;37.55;101421.59;4959984;29;804;-31
2021/09/06 00:08:32;;;;;;;;;;;;;;;28.55;37.64;101422.59;4959975;29;800;-32
2021/09/06 00:11:02;;;;;;;;;;;;;;;28.48;38.12;101432.41;4959679;29;1914;-31
2021/09/06 00:13:27;;;;;;;;;;;;;;;28.55;37.95;101429.84;4959691;29;993;-31
2021/09/06 00:15:52;;;;;;;;;;;;;;;28.45;37.84;101421.94;4960098;28;838;-31
2021/09/06 00:18:18;;;;;;;;;;;;;;;28.63;37.62;101424.41;4959479;29;1266;-31
2021/09/06 00:20:43;;;;;;;;;;;;;;;28.47;37.89;101422.63;4959235;29;749;-31
2021/09/06 00:23:10;;;;;;;;;;;;;;;28.49;37.88;101428.72;4959528;29;781;-31
2021/09/06 00:25:35;;;;;;;;;;;;;;;28.58;37.80;101432.22;4959547;29;814;-31
2021/09/06 00:28:01;;;;;;;;;;;;;;;28.59;37.74;101440.16;4959157;28;803;-31
2021/09/06 00:30:26;;;;;;;;;;;;;;;28.48;37.98;101430.56;4958929;28;981;-31
2021/09/06 00:32:51;;;;;;;;;;;;;;;28.48;38.08;101432.41;4959556;29;1910;-31
2021/09/06 00:35:16;;;;;;;;;;;;;;;28.46;38.16;101427.19;4959249;29;761;-31
2021/09/06 00:37:42;;;;;;;;;;;;;;;28.44;38.53;101429.25;4959158;28;817;-31
2021/09/06 00:40:07;;;;;;;;;;;;;;;28.43;38.38;101426.69;4959067;29;817;-31
2021/09/06 00:42:33;;;;;;;;;;;;;;;28.48;38.19;101432.41;4941674;29;1263;-30
2021/09/06 00:44:58;;;;;;;;;;;;;;;28.52;38.17;101430.22;4958890;28;1021;-31
2021/09/06 00:47:23;;;;;;;;;;;;;;;28.55;38.41;101432.56;4959221;29;825;-31
2021/09/06 00:49:49;;;;;;;;;;;;;;;28.48;38.40;101429.72;4958775;29;824;-31
2021/09/06 00:52:14;;;;;;;;;;;;;;;28.48;38.60;101435.13;4958961;29;1910;-31
2021/09/06 00:54:39;;;;;;;;;;;;;;;28.48;38.66;101429.72;4959112;29;828;-31
2021/09/06 00:57:04;;;;;;;;;;;;;;;28.40;38.67;101435.16;4958773;29;835;-31
2021/09/06 00:59:30;;;;;;;;;;;;;;;28.49;38.39;101428.72;4941281;29;1014;-31
2021/09/06 01:01:55;;;;;;;;;;;;;;;28.50;38.63;101430.41;4958557;29;900;-31
2021/09/06 01:04:20;;;;;;;;;;;;;;;28.50;38.60;101432.25;4958639;28;743;-32
2021/09/06 01:06:46;;;;;;;;;;;;;;;28.61;38.22;101437.28;4959014;29;817;-32
2021/09/06 01:09:11;;;;;;;;;;;;;;;28.35;38.95;101430.28;4958903;29;753;-31
2021/09/06 01:11:36;;;;;;;;;;;;;;;28.48;38.72;101430.56;4957983;28;1903;-31
2021/09/06 01:14:02;;;;;;;;;;;;;;;28.30;38.96;101433.50;4958521;29;946;-31
2021/09/06 01:16:27;;;;;;;;;;;;;;;28.39;38.82;101442.47;4958240;29;1279;-31
2021/09/06 01:18:52;;;;;;;;;;;;;;;28.38;39.01;101442.63;4958580;29;875;-31
2021/09/06 01:21:17;;;;;;;;;;;;;;;28.27;39.43;101439.25;4958262;28;854;-31
2021/09/06 01:23:43;;;;;;;;;;;;;;;28.27;39.52;101444.66;4958504;29;768;-31
2021/09/06 01:26:08;;;;;;;;;;;;;;;28.39;39.38;101439.75;4958483;29;788;-31
2021/09/06 01:28:34;;;;;;;;;;;;;;;28.35;39.39;101433.84;4957577;29;938;-32
2021/09/06 01:31:00;;;;;;;;;;;;;;;28.34;39.60;101434.84;4958387;28;1993;-31
2021/09/06 01:33:25;;;;;;;;;;;;;;;28.29;39.94;101433.66;4958307;29;812;-31
2021/09/06 01:35:50;;;;;;;;;;;;;;;28.29;40.04;101441.78;4958059;29;765;-31
2021/09/06 01:38:16;;;;;;;;;;;;;;;28.33;39.85;101443.13;4958360;29;812;-31
2021/09/06 01:40:41;;;;;;;;;;;;;;;28.40;39.67;101444.13;4957543;28;796;-31
2021/09/06 01:43:09;;;;;;;;;;;;;;;28.44;39.81;101442.78;4957790;28;805;-31
2021/09/06 01:45:34;;;;;;;;;;;;;;;28.35;39.90;101435.69;4958282;29;961;-31
2021/09/06 01:48:03;;;;;;;;;;;;;;;28.38;39.92;101445.34;4958163;29;800;-31
2021/09/06 01:50:28;;;;;;;;;;;;;;;28.30;40.07;101433.50;4957343;28;857;-31
2021/09/06 01:52:53;;;;;;;;;;;;;;;28.25;40.35;101438.56;4957719;29;1902;-31
2021/09/06 01:55:21;;;;;;;;;;;;;;;28.30;40.22;101438.03;4957932;29;867;-31
2021/09/06 01:57:49;;;;;;;;;;;;;;;28.29;40.14;101439.94;4957875;29;753;-31
2021/09/06 02:00:15;;;;;;;;;;;;;;;28.27;40.39;101433.00;4957329;29;947;-31
2021/09/06 02:02:40;;;;;;;;;;;;;;;28.22;40.54;101433.50;4957975;29;761;-31
2021/09/06 02:05:06;;;;;;;;;;;;;;;28.26;40.44;101437.53;4957439;28;836;-32
2021/09/06 02:07:31;;;;;;;;;;;;;;;28.32;40.46;101431.47;4958029;29;752;-32
2021/09/06 02:09:56;;;;;;;;;;;;;;;28.39;40.37;101434.34;4958045;29;836;-31
2021/09/06 02:12:21;;;;;;;;;;;;;;;28.41;40.12;101443.09;4957415;29;1944;-31
2021/09/06 02:14:47;;;;;;;;;;;;;;;28.40;40.58;101444.13;4957432;29;1009;-32
2021/09/06 02:17:12;;;;;;;;;;;;;;;28.40;40.23;101448.69;4957521;29;1522;-31
2021/09/06 02:19:37;;;;;;;;;;;;;;;28.37;40.27;101444.50;4957372;28;739;-31
2021/09/06 02:22:03;;;;;;;;;;;;;;;28.29;40.83;101445.34;4957758;29;844;-31
2021/09/06 02:24:28;;;;;;;;;;;;;;;28.38;40.63;101451.56;4957278;29;885;-31
2021/09/06 02:26:54;;;;;;;;;;;;;;;28.38;40.54;101451.56;4957204;28;843;-31
2021/09/06 02:29:19;;;;;;;;;;;;;;;28.46;40.44;101450.72;4957547;29;969;-31
2021/09/06 02:31:47;;;;;;;;;;;;;;;28.45;40.70;101455.28;4957110;28;1918;-31
2021/09/06 02:34:12;;;;;;;;;;;;;;;28.33;40.80;101452.09;4957238;29;823;-31
2021/09/06 02:36:38;;;;;;;;;;;;;;;28.36;40.49;101443.63;4957539;28;826;-31
2021/09/06 02:39:03;;;;;;;;;;;;;;;28.33;40.75;101446.69;4958137;29;726;-30
2021/09/06 02:41:28;;;;;;;;;;;;;;;28.34;40.97;101450.25;4957570;29;757;-32
2021/09/06 02:43:54;;;;;;;;;;;;;;;28.32;40.82;101442.28;4957260;29;1002;-32
2021/09/06 02:46:19;;;;;;;;;;;;;;;28.43;40.73;101440.22;4957287;29;832;-32
2021/09/06 02:48:44;;;;;;;;;;;;;;;28.40;40.88;101446.00;4957281;29;761;-32
2021/09/06 02:51:13;;;;;;;;;;;;;;;28.34;40.96;101442.13;4957325;29;1906;-32
2021/09/06 02:53:38;;;;;;;;;;;;;;;28.43;40.59;101445.63;4957304;29;790;-32
2021/09/06 02:56:03;;;;;;;;;;;;;;;28.43;40.90;101443.78;4957166;29;845;-32
2021/09/06 02:58:29;;;;;;;;;;;;;;;28.40;40.90;101446.84;4956720;29;930;-32
2021/09/06 03:00:54;;;;;;;;;;;;;;;28.46;40.67;101451.53;4957390;28;727;-32
2021/09/06 03:03:19;;;;;;;;;;;;;;;28.41;40.77;101445.81;4960399;29;770;-32
2021/09/06 03:05:44;;;;;;;;;;;;;;;28.37;41.21;101452.59;4961021;29;890;-32
2021/09/06 03:08:10;;;;;;;;;;;;;;;28.39;40.96;101449.72;4961072;29;803;-32
2021/09/06 03:10:35;;;;;;;;;;;;;;;28.33;41.28;101452.09;4960448;29;812;-31
2021/09/06 03:13:00;;;;;;;;;;;;;;;28.27;41.07;101460.91;4960747;29;1968;-31
2021/09/06 03:15:26;;;;;;;;;;;;;;;28.17;42.09;101460.25;4960583;28;974;-31
2021/09/06 03:17:51;;;;;;;;;;;;;;;27.85;37.85;101463.69;4960529;29;1067;-29
2021/09/06 03:20:16;;;;;;;;;;;;;;;27.28;30.78;101459.09;4960382;28;839;-31
2021/09/06 03:22:42;;;;;;;;;;;;;;;27.07;29.55;101457.69;4960423;28;859;-28
2021/09/06 03:25:07;;;;;;;;;;;;;;;26.88;29.08;101457.78;4959901;28;761;-29
2021/09/06 03:27:32;;;;;;;;;;;;;;;26.82;29.42;101460.28;4960693;29;781;-30
2021/09/06 03:29:58;;;;;;;;;;;;;;;26.54;28.50;101458.69;4960484;29;966;-29
2021/09/06 03:32:23;;;;;;;;;;;;;;;26.12;26.00;101457.59;4960341;29;1967;-30
2021/09/06 03:34:48;;;;;;;;;;;;;;;25.78;26.26;101454.66;4960412;29;749;-29
2021/09/06 03:37:14;;;;;;;;;;;;;;;25.26;25.75;101463.41;4960606;29;800;-30
2021/09/06 03:39:39;;;;;;;;;;;;;;;25.36;25.73;101463.38;4960287;29;823;-29
2021/09/06 03:42:04;;;;;;;;;;;;;;;25.60;25.72;101460.03;4960661;29;844;-31
2021/09/06 03:44:29;;;;;;;;;;;;;;;25.66;26.47;101459.44;4960139;29;1010;-31
2021/09/06 03:46:55;;;;;;;;;;;;;;;25.83;29.48;101462.28;4960152;29;816;-30
2021/09/06 03:49:20;;;;;;;;;;;;;;;26.25;30.55;101468.78;4958765;29;925;-30
2021/09/06 03:51:46;;;;;;;;;;;;;;;26.39;29.70;101472.75;4958982;29;1902;-28
2021/09/06 03:54:11;;;;;;;;;;;;;;;26.60;29.13;101465.28;4960006;29;800;-28
2021/09/06 03:56:36;;;;;;;;;;;;;;;25.61;26.73;101464.41;4960021;29;816;-29
2021/09/06 03:59:01;;;;;;;;;;;;;;;25.54;27.85;101468.75;4959999;29;962;-29
2021/09/06 04:01:27;;;;;;;;;;;;;;;25.58;27.10;101467.44;4960038;29;870;-29
2021/09/06 04:03:52;;;;;;;;;;;;;;;25.50;27.49;101468.22;4959176;29;500;-30
2021/09/06 04:06:17;;;;;;;;;;;;;;;26.05;25.89;101473.53;4959903;29;769;-29
2021/09/06 04:08:43;;;;;;;;;;;;;;;26.35;25.77;101471.41;4959933;29;819;-30
2021/09/06 04:11:08;;;;;;;;;;;;;;;26.60;24.75;101468.81;4959526;29;1964;-30
2021/09/06 04:13:33;;;;;;;;;;;;;;;26.59;25.25;101474.38;4958614;28;950;-29
2021/09/06 04:15:58;;;;;;;;;;;;;;;26.57;24.63;101471.84;4959248;28;840;-29
2021/09/06 04:18:26;;;;;;;;;;;;;;;26.58;24.70;101484.31;4959069;28;1307;-29
2021/09/06 04:20:51;;;;;;;;;;;;;;;26.65;24.38;101474.59;4960391;28;807;-29
2021/09/06 04:23:17;;;;;;;;;;;;;;;26.71;24.55;101491.13;4959688;28;838;-29
2021/09/06 04:25:42;;;;;;;;;;;;;;;26.62;24.41;101487.56;4959207;29;824;-30
2021/09/06 04:28:07;;;;;;;;;;;;;;;26.68;24.61;101495.00;4959367;29;780;-30
2021/09/06 04:30:33;;;;;;;;;;;;;;;26.52;24.92;101491.22;4959151;29;1009;-31
2021/09/06 04:32:58;;;;;;;;;;;;;;;26.56;24.53;101494.44;4959314;29;1990;-32
2021/09/06 04:35:23;;;;;;;;;;;;;;;26.51;24.59;101494.06;4959207;28;809;-30
2021/09/06 04:37:49;;;;;;;;;;;;;;;26.69;24.16;101506.63;4959634;29;757;-30
2021/09/06 04:40:14;;;;;;;;;;;;;;;26.57;24.65;101503.38;4959068;29;895;-31
2021/09/06 04:42:39;;;;;;;;;;;;;;;26.63;24.67;101498.19;4959407;29;797;-30
2021/09/06 04:45:04;;;;;;;;;;;;;;;26.65;24.74;101501.56;4958902;29;950;-27
2021/09/06 04:47:30;;;;;;;;;;;;;;;26.70;24.93;101494.81;4959314;29;813;-31
2021/09/06 04:49:55;;;;;;;;;;;;;;;26.72;25.72;101495.53;4959277;29;864;-31
2021/09/06 04:52:20;;;;;;;;;;;;;;;26.69;26.01;101495.84;4958940;29;1977;-28
2021/09/06 04:54:46;;;;;;;;;;;;;;;26.47;26.33;101504.34;4958824;29;789;-30
2021/09/06 04:57:11;;;;;;;;;;;;;;;26.16;28.25;101504.78;4959104;29;828;-31
2021/09/06 04:59:36;;;;;;;;;;;;;;;26.41;26.61;101499.56;4958907;29;958;-29
2021/09/06 05:02:02;;;;;;;;;;;;;;;26.38;26.38;101500.75;4958819;29;808;-30
2021/09/06 05:04:27;;;;;;;;;;;;;;;26.36;26.52;101501.94;4941706;29;1348;-28
2021/09/06 05:06:55;;;;;;;;;;;;;;;26.44;26.71;101498.44;4958175;29;871;-29
2021/09/06 05:09:20;;;;;;;;;;;;;;;26.61;26.32;101492.09;4958998;28;796;-30
2021/09/06 05:11:46;;;;;;;;;;;;;;;26.56;26.40;101496.31;4958826;28;1910;-30
2021/09/06 05:14:11;;;;;;;;;;;;;;;25.85;27.07;101489.91;4958181;28;1151;-31
2021/09/06 05:16:36;;;;;;;;;;;;;;;25.59;27.29;101492.53;4958166;29;1170;-29
2021/09/06 05:19:02;;;;;;;;;;;;;;;25.67;27.28;101495.31;4958624;29;796;-30
2021/09/06 05:21:27;;;;;;;;;;;;;;;25.60;27.56;101487.00;4958754;29;796;-29
2021/09/06 05:23:53;;;;;;;;;;;;;;;25.67;27.72;101481.84;4958738;28;768;-29
2021/09/06 05:26:18;;;;;;;;;;;;;;;25.71;27.62;101495.88;4958465;29;808;-30
2021/09/06 05:28:43;;;;;;;;;;;;;;;25.76;27.78;101488.13;4958140;29;985;-30
2021/09/06 05:31:10;;;;;;;;;;;;;;;25.70;27.97;101483.38;4957964;29;1914;-28
2021/09/06 05:33:35;;;;;;;;;;;;;;;25.90;28.04;101490.28;4958038;29;796;-30
2021/09/06 05:36:01;;;;;;;;;;;;;;;25.86;28.30;101491.59;4957751;28;852;-31
2021/09/06 05:38:26;;;;;;;;;;;;;;;25.82;28.78;101489.38;4958393;29;781;-29
2021/09/06 05:40:51;;;;;;;;;;;;;;;25.93;28.66;101486.44;4958049;29;946;-28
2021/09/06 05:43:17;;;;;;;;;;;;;;;25.99;28.79;101490.38;4954178;28;1933;-29
2021/09/06 05:45:42;;;;;;;;;;;;;;;25.97;28.79;101487.81;4957606;29;824;-32
2021/09/06 05:48:08;;;;;;;;;;;;;;;26.01;28.76;101486.50;4957454;29;808;-29
2021/09/06 05:50:34;;;;;;;;;;;;;;;25.92;29.46;101487.44;4957995;29;781;-30
2021/09/06 05:53:00;;;;;;;;;;;;;;;26.13;29.07;101491.63;4958386;29;1978;-31
2021/09/06 05:55:25;;;;;;;;;;;;;;;26.03;29.49;101497.97;4957959;29;784;-31
2021/09/06 05:57:52;;;;;;;;;;;;;;;26.00;29.49;101497.44;4957014;29;976;-29
2021/09/06 06:00:18;;;;;;;;;;;;;;;26.05;29.85;101497.81;4955784;29;958;-27
2021/09/06 06:02:45;;;;;;;;;;;;;;;26.12;30.40;101503.41;4957903;29;805;-28
2021/09/06 06:05:11;;;;;;;;;;;;;;;26.60;31.47;101489.56;4957008;29;828;-29
2021/09/06 06:07:37;;;;;;;;;;;;;;;26.86;33.85;101504.88;4955828;29;1366;-29
2021/09/06 06:10:02;;;;;;;;;;;;;;;27.15;33.31;101503.63;4939904;29;1266;-28
2021/09/06 06:12:30;;;;;;;;;;;;;;;27.13;34.99;101505.63;4957156;29;1906;-29
2021/09/06 06:14:55;;;;;;;;;;;;;;;20.18;49.78;101498.19;4957140;29;962;-29
2021/09/06 06:17:20;;;;;;;;;;;;;;;22.02;46.70;101503.34;4956763;29;1072;-28
2021/09/06 06:19:46;;;;;;;;;;;;;;;22.92;44.04;101502.00;4957011;29;788;-29
2021/09/06 06:22:11;;;;;;;;;;;;;;;22.92;43.77;101507.34;4957791;29;800;-29
2021/09/06 06:24:36;;;;;;;;;;;;;;;22.93;43.79;101512.59;4956610;29;765;-27
2021/09/06 06:27:02;;;;;;;;;;;;;;;23.00;44.81;101503.00;4957227;29;861;-28
2021/09/06 06:29:27;;;;;;;;;;;;;;;24.86;40.56;101512.09;4956740;29;989;-29
2021/09/06 06:31:57;;;;;;;;;;;;;;;23.89;41.48;101513.00;4956612;29;1982;-28
2021/09/06 06:34:32;;;;;;;;;;;;;;;23.31;45.15;101512.81;4957385;29;797;-25
2021/09/06 06:36:57;;;;;;;;;;;;;;;25.37;39.92;101519.78;4958256;28;773;-27
2021/09/06 06:39:29;;;;;;;;;;;;;;;23.69;42.53;101513.03;4960232;29;768;-29
2021/09/06 06:41:54;;;;;;;;;;;;;;;24.92;40.79;101516.91;4961447;29;765;-27
2021/09/06 06:44:20;;;;;;;;;;;;;;;24.26;41.05;101508.75;4960943;29;969;-29
2021/09/06 06:46:45;;;;;;;;;;;;;;;23.25;43.67;101513.38;4960786;29;801;-30
2021/09/06 06:49:10;;;;;;;;;;;;;;;24.67;41.88;101518.41;4960573;29;791;-31
2021/09/06 06:51:36;;;;;;;;;;;;;;;24.36;41.01;101511.41;4960985;29;1906;-30
2021/09/06 06:54:01;;;;;;;;;;;;;;;24.74;41.79;101521.38;4953763;28;1059;-29
2021/09/06 06:56:27;;;;;;;;;;;;;;;24.90;39.58;101502.75;4942540;29;774;-29
2021/09/06 06:58:52;;;;;;;;;;;;;;;23.78;44.33;101513.16;4959690;29;803;-28
2021/09/06 07:01:17;;;;;;;;;;;;;;;25.50;39.59;101518.53;4959883;29;761;-29
2021/09/06 07:03:43;;;;;;;;;;;;;;;24.06;42.07;101513.28;4960497;29;824;-28
2021/09/06 07:06:08;;;;;;;;;;;;;;;24.50;42.93;101517.31;4955089;29;745;-28
2021/09/06 07:08:33;;;;;;;;;;;;;;;25.26;39.17;101519.97;4945421;29;773;-32
2021/09/06 07:10:59;;;;;;;;;;;;;;;23.44;44.71;101520.63;4945205;29;1918;-31
2021/09/06 07:13:24;;;;;;;;;;;;;;;25.21;41.01;101525.81;4960135;29;848;-29
2021/09/06 07:15:49;;;;;;;;;;;;;;;24.27;41.73;101528.44;4960028;29;840;-28
2021/09/06 07:18:15;;;;;;;;;;;;;;;23.76;45.00;101524.06;4943015;29;1756;-31
2021/09/06 07:20:40;;;;;;;;;;;;;;;25.45;40.57;101529.78;4960088;29;741;-30
2021/09/06 07:23:05;;;;;;;;;;;;;;;23.84;43.24;101520.66;4960132;28;771;-30
2021/09/06 07:25:31;;;;;;;;;;;;;;;24.11;45.01;101527.16;4960670;29;848;-28
2021/09/06 07:27:56;;;;;;;;;;;;;;;25.70;40.51;101519.28;4959234;28;825;-27
2021/09/06 07:30:21;;;;;;;;;;;;;;;23.28;44.19;101471.97;4959175;29;970;-28
2021/09/06 07:32:48;;;;;;;;;;;;;;;24.48;44.12;101533.63;4960049;29;1978;-27
2021/09/06 07:35:13;;;;;;;;;;;;;;;25.46;39.82;101530.63;4960163;29;859;-28
2021/09/06 07:37:39;;;;;;;;;;;;;;;23.73;44.18;101527.88;4959563;28;858;-28
2021/09/06 07:40:05;;;;;;;;;;;;;;;24.90;43.48;101534.16;4959989;29;769;-27
2021/09/06 07:42:30;;;;;;;;;;;;;;;25.32;40.73;101535.53;4959439;29;827;-27
2021/09/06 07:44:55;;;;;;;;;;;;;;;23.80;44.42;101538.06;4959453;29;974;-28
2021/09/06 07:47:20;;;;;;;;;;;;;;;25.06;43.21;101539.78;4959566;28;789;-27
2021/09/06 07:49:47;;;;;;;;;;;;;;;24.65;42.38;101539.22;4959644;29;761;-26
2021/09/06 07:52:12;;;;;;;;;;;;;;;23.92;44.35;101539.59;4958863;28;1898;-28
2021/09/06 07:54:37;;;;;;;;;;;;;;;24.82;43.98;101548.38;4959327;29;821;-29
2021/09/06 07:57:03;;;;;;;;;;;;;;;25.42;40.34;101544.38;4959313;29;741;-28
2021/09/06 07:59:28;;;;;;;;;;;;;;;23.72;44.62;101542.28;4958789;29;1006;-26
2021/09/06 08:01:54;;;;;;;;;;;;;;;24.27;45.51;101537.34;4959313;29;777;-27
2021/09/06 08:04:19;;;;;;;;;;;;;;;25.76;41.46;101542.03;4959394;29;769;-28
2021/09/06 08:06:45;;;;;;;;;;;;;;;23.61;45.12;101542.44;4958867;29;740;-28
2021/09/06 08:09:11;;;;;;;;;;;;;;;23.49;47.47;101547.06;4959226;28;812;-26
2021/09/06 08:11:36;;;;;;;;;;;;;;;25.45;42.52;101548.63;4959154;29;1977;-27
2021/09/06 08:14:01;;;;;;;;;;;;;;;24.11;44.25;101537.91;4958982;29;1006;-27
2021/09/06 08:16:27;;;;;;;;;;;;;;;23.33;46.13;101532.34;4959016;29;1290;-26
2021/09/06 08:18:52;;;;;;;;;;;;;;;24.81;44.24;101543.97;4959327;29;812;-25
2021/09/06 08:21:17;;;;;;;;;;;;;;;25.17;42.13;101543.28;4958803;29;785;-30
2021/09/06 08:23:43;;;;;;;;;;;;;;;23.81;45.52;101553.19;4959099;29;785;-25
2021/09/06 08:26:08;;;;;;;;;;;;;;;23.30;48.39;101543.34;4958801;29;765;-24
2021/09/06 08:28:33;;;;;;;;;;;;;;;25.39;43.30;101547.38;4958556;29;950;-24
2021/09/06 08:30:59;;;;;;;;;;;;;;;24.37;44.50;101541.84;4958740;29;1931;-24
2021/09/06 08:33:24;;;;;;;;;;;;;;;23.93;45.47;101538.63;4958793;29;739;-26
2021/09/06 08:35:49;;;;;;;;;;;;;;;24.96;44.74;101536.28;4958713;29;812;-25
2021/09/06 08:38:15;;;;;;;;;;;;;;;25.50;41.65;101556.25;4958731;29;828;-25
2021/09/06 08:40:40;;;;;;;;;;;;;;;24.14;44.70;101539.47;4958451;29;891;-24
2021/09/06 08:43:06;;;;;;;;;;;;;;;24.73;45.14;101547.41;4955464;28;1553;-25
2021/09/06 08:45:31;;;;;;;;;;;;;;;25.72;41.16;101535.28;4955887;29;970;-27
2021/09/06 08:47:57;;;;;;;;;;;;;;;23.71;45.52;101540.59;4959218;29;756;-25
2021/09/06 08:50:22;;;;;;;;;;;;;;;23.96;47.04;101532.97;4958243;29;744;-28
2021/09/06 08:52:47;;;;;;;;;;;;;;;25.22;43.53;101542.81;4958777;29;1898;-25
2021/09/06 08:55:13;;;;;;;;;;;;;;;24.21;44.83;101533.41;4958319;29;792;-26
2021/09/06 08:57:38;;;;;;;;;;;;;;;23.96;45.52;101535.66;4958762;29;773;-26
2021/09/06 09:00:05;;;;;;;;;;;;;;;23.73;46.77;101535.94;4957071;28;902;-29
2021/09/06 09:02:32;;;;;;;;;;;;;;;25.23;43.72;101534.59;4941438;29;823;-29
2021/09/06 09:05:02;;;;;;;;;;;;;;;24.52;44.39;101532.34;4958667;29;792;-25
2021/09/06 09:07:28;;;;;;;;;;;;;;;24.25;45.13;101531.28;4958246;29;818;-24
2021/09/06 09:09:53;;;;;;;;;;;;;;;23.95;46.02;101506.25;4957966;29;772;-23
2021/09/06 09:12:21;;;;;;;;;;;;;;;24.86;44.99;101530.09;4957990;29;2048;-27
2021/09/06 09:14:53;;;;;;;;;;;;;;;25.55;42.50;101530.56;4956343;29;1482;-26
2021/09/06 09:17:18;;;;;;;;;;;;;;;24.60;44.83;101536.97;4958240;29;1593;-26
2021/09/06 09:19:44;;;;;;;;;;;;;;;24.38;45.30;101525.56;4958681;29;765;-27
2021/09/06 09:22:10;;;;;;;;;;;;;;;24.09;45.82;101521.06;4957720;29;1655;-28
2021/09/06 09:24:37;;;;;;;;;;;;;;;24.64;46.72;101522.22;4958078;29;773;-26
2021/09/06 09:27:03;;;;;;;;;;;;;;;25.92;43.06;101534.09;4957708;29;1437;-26
2021/09/06 09:29:28;;;;;;;;;;;;;;;24.57;44.75;101527.34;4957472;29;1301;-26
2021/09/06 09:31:57;;;;;;;;;;;;;;;23.89;46.42;101518.38;4958185;28;1918;-26
2021/09/06 09:34:22;;;;;;;;;;;;;;;24.09;46.31;101529.13;4957997;29;831;-26
2021/09/06 09:36:48;;;;;;;;;;;;;;;24.15;46.39;101522.34;4957280;29;753;-27
2021/09/06 09:39:14;;;;;;;;;;;;;;;24.76;45.46;101528.28;4957971;29;809;-28
2021/09/06 09:41:40;;;;;;;;;;;;;;;25.89;43.52;101534.41;4958008;29;789;-28
2021/09/06 09:44:08;;;;;;;;;;;;;;;24.41;44.74;101527.97;4957099;29;1102;-27
2021/09/06 09:46:33;;;;;;;;;;;;;;;23.57;47.95;101524.91;4957101;29;1553;-27
2021/09/06 09:49:09;;;;;;;;;;;;;;;25.50;43.17;101538.25;4957672;29;808;-28
2021/09/06 09:51:34;;;;;;;;;;;;;;;24.38;45.16;101528.25;4956710;29;1918;-28
2021/09/06 09:54:02;;;;;;;;;;;;;;;23.68;46.99;101523.91;4957388;29;797;-27
2021/09/06 09:56:28;;;;;;;;;;;;;;;25.32;44.48;101527.47;4956902;29;861;-25
2021/09/06 09:58:53;;;;;;;;;;;;;;;25.00;43.79;101532.31;4957157;29;969;-28
2021/09/06 10:01:18;;;;;;;;;;;;;;;23.83;46.54;101521.66;4957461;28;762;-29
2021/09/06 10:03:44;;;;;;;;;;;;;;;24.20;48.14;101520.09;4939989;29;872;-29
2021/09/06 10:06:09;;;;;;;;;;;;;;;25.83;43.31;101528.78;4957274;29;837;-28
2021/09/06 10:08:34;;;;;;;;;;;;;;;24.24;45.92;101526.88;4954204;28;1118;-32
2021/09/06 10:10:59;;;;;;;;;;;;;;;23.43;47.88;101528.84;4938005;29;1911;-31
2021/09/06 10:13:26;;;;;;;;;;;;;;;24.97;45.93;101526.38;4954499;28;1297;-27
2021/09/06 10:15:58;;;;;;;;;;;;;;;25.88;42.36;101530.03;4950242;29;1011;-31
2021/09/06 10:18:23;;;;;;;;;;;;;;;24.07;46.32;101528.44;4957203;29;1151;-31
2021/09/06 10:20:49;;;;;;;;;;;;;;;23.81;47.44;101526.31;4956667;29;1549;-30
2021/09/06 10:23:15;;;;;;;;;;;;;;;25.24;45.17;101535.44;4957291;29;825;-28
2021/09/06 10:25:40;;;;;;;;;;;;;;;24.89;44.88;101535.19;4956862;29;766;-27
2021/09/06 10:28:06;;;;;;;;;;;;;;;23.97;47.01;101526.59;4957035;29;812;-31
2021/09/06 10:30:36;;;;;;;;;;;;;;;24.55;47.75;101534.75;4957059;29;911;-29
2021/09/06 10:33:01;;;;;;;;;;;;;;;26.07;43.38;101527.31;4957425;29;1976;-28
2021/09/06 10:35:29;;;;;;;;;;;;;;;24.03;47.12;101527.88;4956667;29;864;-28
2021/09/06 10:38:13;;;;;;;;;;;;;;;23.85;47.52;101527.75;4957432;29;800;-32
2021/09/06 10:40:39;;;;;;;;;;;;;;;23.39;49.35;101544.34;4956952;29;769;-29
2021/09/06 10:43:14;;;;;;;;;;;;;;;25.47;44.93;101540.41;4957037;29;765;-31
2021/09/06 10:45:40;;;;;;;;;;;;;;;24.26;46.54;101542.84;4956504;29;1046;-32
2021/09/06 10:48:05;;;;;;;;;;;;;;;23.46;48.04;101539.28;4955762;29;1229;-31
2021/09/06 10:50:31;;;;;;;;;;;;;;;25.15;45.82;101545.28;4956698;29;1252;-29
2021/09/06 10:52:56;;;;;;;;;;;;;;;24.62;45.06;101547.59;4939161;29;1911;-30
2021/09/06 10:55:21;;;;;;;;;;;;;;;23.51;47.55;101538.88;4956193;29;1312;-32
2021/09/06 10:57:47;;;;;;;;;;;;;;;23.89;48.80;101547.13;4957226;29;850;-32
2021/09/06 11:00:16;;;;;;;;;;;;;;;25.61;43.48;101526.38;4957057;29;950;-28
2021/09/06 11:02:42;;;;;;;;;;;;;;;24.14;45.23;101547.53;4951696;28;1130;-29
2021/09/06 11:05:08;;;;;;;;;;;;;;;24.27;47.08;101542.75;4954699;29;1127;-32
2021/09/06 11:07:33;;;;;;;;;;;;;;;25.89;42.75;101552.44;4956780;29;888;-28
2021/09/06 11:10:12;;;;;;;;;;;;;;;23.82;46.33;101550.34;4956688;29;761;-29
2021/09/06 11:12:41;;;;;;;;;;;;;;;24.25;47.48;101543.84;4956367;29;1902;-28
2021/09/06 11:15:07;;;;;;;;;;;;;;;25.85;43.24;101551.06;4938957;29;1278;-32
2021/09/06 11:17:32;;;;;;;;;;;;;;;23.85;46.21;101550.09;4956560;29;1070;-32
2021/09/06 11:19:58;;;;;;;;;;;;;;;24.24;47.68;101553.75;4956293;29;764;-28
2021/09/06 11:22:25;;;;;;;;;;;;;;;25.81;43.50;101553.22;4956425;28;1632;-31
2021/09/06 11:24:57;;;;;;;;;;;;;;;23.83;46.60;101545.84;4960398;29;847;-29
2021/09/06 11:27:25;;;;;;;;;;;;;;;24.67;46.65;101550.69;4959849;29;858;-30
2021/09/06 11:29:51;;;;;;;;;;;;;;;25.13;43.33;101553.50;4959811;29;957;-31
2021/09/06 11:32:16;;;;;;;;;;;;;;;23.66;47.05;101540.16;4959934;29;1910;-30
2021/09/06 11:34:42;;;;;;;;;;;;;;;25.11;45.33;101544.72;4959651;29;752;-29
2021/09/06 11:37:08;;;;;;;;;;;;;;;24.68;44.70;101544.31;4960351;29;884;-32
2021/09/06 11:39:34;;;;;;;;;;;;;;;23.63;46.92;101543.16;4959750;28;800;-28
2021/09/06 11:41:59;;;;;;;;;;;;;;;25.00;45.41;101539.53;4959023;28;800;-32
2021/09/06 11:44:25;;;;;;;;;;;;;;;25.19;43.11;101541.28;4942339;29;958;-28
2021/09/06 11:46:50;;;;;;;;;;;;;;;23.63;46.97;101544.97;4959674;29;809;-30
2021/09/06 11:49:18;;;;;;;;;;;;;;;24.36;47.51;101537.47;4958789;29;883;-31
2021/09/06 11:51:47;;;;;;;;;;;;;;;25.89;42.59;101545.19;4959835;29;1902;-30
2021/09/06 11:54:12;;;;;;;;;;;;;;;23.85;46.52;101544.72;4959725;29;828;-31
2021/09/06 11:56:44;;;;;;;;;;;;;;;24.02;48.38;101536.94;4958895;29;832;-30
2021/09/06 11:59:09;;;;;;;;;;;;;;;25.63;43.94;101545.13;4959006;29;970;-29
2021/09/06 12:01:35;;;;;;;;;;;;;;;24.01;46.28;101545.97;4959646;28;765;-28
2021/09/06 12:04:09;;;;;;;;;;;;;;;24.75;46.63;101552.63;4959354;29;725;-29
2021/09/06 12:06:37;;;;;;;;;;;;;;;25.82;42.44;101552.22;4959678;29;769;-32
2021/09/06 12:09:11;;;;;;;;;;;;;;;23.69;47.43;101547.13;4959335;29;777;-27
2021/09/06 12:11:46;;;;;;;;;;;;;;;23.33;48.40;101551.13;4942218;29;1907;-32
2021/09/06 12:14:15;;;;;;;;;;;;;;;24.67;46.94;101545.31;4958446;28;1002;-32
2021/09/06 12:16:45;;;;;;;;;;;;;;;25.29;42.97;101539.38;4959044;28;1219;-28
2021/09/06 12:19:20;;;;;;;;;;;;;;;23.62;47.25;101543.28;4958805;29;773;-28
2021/09/06 12:21:46;;;;;;;;;;;;;;;23.51;49.12;101531.69;4959398;29;1609;-31
2021/09/06 12:24:11;;;;;;;;;;;;;;;25.50;44.08;101538.25;4956951;29;808;-30
2021/09/06 12:26:39;;;;;;;;;;;;;;;24.28;45.95;101530.13;4959277;29;737;-29
2021/09/06 12:29:05;;;;;;;;;;;;;;;23.50;47.73;101540.72;4959113;29;1056;-29
2021/09/06 12:31:38;;;;;;;;;;;;;;;23.08;48.71;101531.00;4958995;29;1970;-29
2021/09/06 12:34:03;;;;;;;;;;;;;;;24.96;45.81;101524.69;4957898;28;852;-30
2021/09/06 12:36:29;;;;;;;;;;;;;;;24.27;45.79;101531.13;4959018;29;769;-29
2021/09/06 12:38:54;;;;;;;;;;;;;;;23.38;47.89;101528.38;4958588;29;757;-30
2021/09/06 12:41:19;;;;;;;;;;;;;;;25.06;45.51;101533.53;4959232;29;825;-29
2021/09/06 12:43:44;;;;;;;;;;;;;;;24.50;45.16;101523.56;4958214;29;958;-29
2021/09/06 12:46:10;;;;;;;;;;;;;;;23.41;47.59;101531.66;4958913;29;851;-30
2021/09/06 12:48:35;;;;;;;;;;;;;;;24.24;47.75;101524.19;4958610;29;765;-30